Time;durP1;ratioP1;P1;durP2;ratioP2;P2;SDS_P1;SDS_P2;PMS_P1;PMS_P2;Temp;Humidity;BMP_temperature;BMP_pressure;BME280_temperature;BME280_humidity;BME280_pressure;Samples;Min_cycle;Max_cycle;Signal;HPM_P1;HPM_P2
2021/08/24 00:01:41;;;;;;;3.30;0.80;;;15.40;99.90;;;;;;5065722;28;20428;-75
2021/08/24 00:04:09;;;;;;;2.42;1.10;;;15.40;99.90;;;;;;5064281;28;20056;-74
2021/08/24 00:06:35;;;;;;;3.20;1.13;;;15.30;99.90;;;;;;5064137;28;20052;-75
2021/08/24 00:09:02;;;;;;;4.70;1.42;;;15.30;99.90;;;;;;5064607;28;20040;-75
2021/08/24 00:11:33;;;;;;;2.50;1.33;;;15.30;99.90;;;;;;5065468;28;20044;-75
2021/08/24 00:14:07;;;;;;;3.45;0.98;;;15.30;99.90;;;;;;5070064;28;20047;-75
2021/08/24 00:16:34;;;;;;;2.78;1.00;;;15.30;99.90;;;;;;5084271;28;20028;-75
2021/08/24 00:19:01;;;;;;;3.85;1.00;;;15.30;99.90;;;;;;5067928;28;20044;-75
2021/08/24 00:21:28;;;;;;;3.00;1.10;;;15.20;99.90;;;;;;5087804;28;20032;-75
2021/08/24 00:23:54;;;;;;;3.63;1.35;;;15.20;99.90;;;;;;5088165;28;20032;-75
2021/08/24 00:26:23;;;;;;;4.65;1.88;;;15.20;99.90;;;;;;5068837;28;20035;-75
2021/08/24 00:28:49;;;;;;;4.18;1.13;;;15.20;99.90;;;;;;5086300;28;20036;-75
2021/08/24 00:31:16;;;;;;;5.78;1.58;;;15.20;99.90;;;;;;5071046;28;20028;-75
2021/08/24 00:33:42;;;;;;;2.92;1.23;;;15.20;99.90;;;;;;5069156;28;20386;-75
2021/08/24 00:36:17;;;;;;;2.80;1.17;;;15.10;99.90;;;;;;5049895;28;20043;-75
2021/08/24 00:38:43;;;;;;;3.17;1.00;;;15.10;99.90;;;;;;5066990;28;20506;-75
2021/08/24 00:41:10;;;;;;;3.22;1.05;;;15.10;99.90;;;;;;5067316;28;20044;-76
2021/08/24 00:43:38;;;;;;;3.05;1.13;;;15.10;99.90;;;;;;5067363;28;20043;-75
2021/08/24 00:46:13;;;;;;;4.32;1.27;;;15.10;99.90;;;;;;5048258;28;20033;-75
2021/08/24 00:48:41;;;;;;;3.90;1.30;;;15.10;99.90;;;;;;5065898;28;20043;-75
2021/08/24 00:51:08;;;;;;;2.05;0.98;;;15.00;99.90;;;;;;5067383;28;20075;-75
2021/08/24 00:53:36;;;;;;;5.18;1.42;;;15.00;99.90;;;;;;5065979;28;20538;-75
2021/08/24 00:56:06;;;;;;;4.53;1.10;;;15.00;99.90;;;;;;5065540;28;20024;-75
2021/08/24 00:58:33;;;;;;;2.05;0.80;;;15.00;99.90;;;;;;5063528;28;20051;-75
2021/08/24 01:00:59;;;;;;;5.72;1.73;;;15.00;99.90;;;;;;5029761;28;20052;-75
2021/08/24 01:03:31;;;;;;;2.78;1.20;;;14.90;99.90;;;;;;5048378;28;20040;-75
2021/08/24 01:06:07;;;;;;;4.38;1.70;;;14.90;99.90;;;;;;5065872;28;20032;-75
2021/08/24 01:08:55;;;;;;;2.47;1.50;;;14.90;99.90;;;;;;5063689;28;20425;-75
2021/08/24 01:11:40;;;;;;;3.83;1.92;;;14.90;99.90;;;;;;5065074;28;20475;-75
2021/08/24 01:14:37;;;;;;;3.97;1.23;;;14.90;99.90;;;;;;5047177;28;20496;-75
2021/08/24 01:17:06;;;;;;;3.30;1.10;;;14.90;99.90;;;;;;5043879;28;20036;-75
2021/08/24 01:20:17;;;;;;;4.63;1.67;;;14.80;99.90;;;;;;5064984;28;20067;-75
2021/08/24 01:23:21;;;;;;;3.70;1.40;;;14.80;99.90;;;;;;5045540;28;20037;-75
2021/08/24 01:26:12;;;;;;;2.55;1.45;;;14.80;99.90;;;;;;5045725;28;20045;-75
2021/08/24 01:29:05;;;;;;;4.45;3.05;;;14.80;99.90;;;;;;5060744;28;20032;-76
2021/08/24 01:32:07;;;;;;;5.18;2.47;;;14.70;99.90;;;;;;5026370;28;20047;-76
2021/08/24 01:34:49;;;;;;;5.68;3.03;;;14.70;99.90;;;;;;5030610;28;20040;-75
2021/08/24 01:37:24;;;;;;;5.00;2.10;;;14.70;99.90;;;;;;5051981;28;20040;-75
2021/08/24 01:39:59;;;;;;;4.35;2.25;;;14.70;99.90;;;;;;5084716;28;20032;-74
2021/08/24 01:42:29;;;;;;;3.38;1.73;;;14.60;99.90;;;;;;5068418;28;20036;-75
2021/08/24 01:44:59;;;;;;;3.97;1.70;;;14.60;99.90;;;;;;5067452;28;20044;-75
2021/08/24 01:47:54;;;;;;;3.90;1.77;;;14.60;99.90;;;;;;5085045;28;20477;-75
2021/08/24 01:50:31;;;;;;;4.60;1.92;;;14.50;99.90;;;;;;5067576;28;20055;-75
2021/08/24 01:53:19;;;;;;;5.82;1.98;;;14.50;99.90;;;;;;5064849;28;20054;-75
2021/08/24 01:55:51;;;;;;;3.80;1.40;;;14.60;99.90;;;;;;5083723;28;20873;-74
2021/08/24 01:58:26;;;;;;;6.25;1.92;;;14.50;99.90;;;;;;5065885;28;20040;-75
2021/08/24 02:00:56;;;;;;;7.28;2.00;;;14.50;99.90;;;;;;5050698;28;20043;-75
2021/08/24 02:03:36;;;;;;;6.43;2.38;;;14.40;99.90;;;;;;5050875;28;20036;-75
2021/08/24 02:06:15;;;;;;;5.43;2.08;;;14.40;99.90;;;;;;5085046;28;20043;-75
2021/08/24 02:08:45;;;;;;;5.95;1.80;;;14.40;99.90;;;;;;5081578;28;20070;-75
2021/08/24 02:11:12;;;;;;;3.45;1.90;;;14.40;99.90;;;;;;5049985;28;20047;-75
2021/08/24 02:13:50;;;;;;;5.05;2.28;;;14.40;99.90;;;;;;5083136;28;20032;-75
2021/08/24 02:16:24;;;;;;;4.97;1.90;;;14.40;99.90;;;;;;5064735;28;20031;-75
2021/08/24 02:18:55;;;;;;;5.15;2.10;;;14.40;99.90;;;;;;5083655;28;20039;-75
2021/08/24 02:21:49;;;;;;;3.63;1.95;;;14.40;99.90;;;;;;5033948;28;20048;-75
2021/08/24 02:24:21;;;;;;;7.03;2.88;;;14.30;99.90;;;;;;5085213;28;20031;-75
2021/08/24 02:26:50;;;;;;;5.25;2.60;;;14.30;99.90;;;;;;5065927;28;20048;-75
2021/08/24 02:29:17;;;;;;;6.18;3.20;;;14.30;99.90;;;;;;5052339;28;20382;-74
2021/08/24 02:31:53;;;;;;;4.72;2.72;;;14.30;99.90;;;;;;5067081;28;20024;-75
2021/08/24 02:34:54;;;;;;;6.03;3.13;;;14.30;99.90;;;;;;5065485;28;20387;-74
2021/08/24 02:37:26;;;;;;;5.10;2.35;;;14.30;99.90;;;;;;5077266;28;20036;-75
2021/08/24 02:40:13;;;;;;;3.90;2.53;;;14.30;99.90;;;;;;5066559;28;20032;-75
2021/08/24 02:43:05;;;;;;;4.45;2.58;;;14.30;99.90;;;;;;5072092;28;20043;-75
2021/08/24 02:45:40;;;;;;;5.45;2.97;;;14.30;99.90;;;;;;5073081;28;20028;-75
2021/08/24 02:48:11;;;;;;;6.55;2.72;;;14.20;99.90;;;;;;5069981;28;20036;-75
2021/08/24 02:50:40;;;;;;;6.57;2.47;;;14.20;99.90;;;;;;5068856;28;20048;-75
2021/08/24 02:53:07;;;;;;;6.68;2.58;;;14.20;99.90;;;;;;5047944;28;20045;-75
2021/08/24 02:55:33;;;;;;;4.63;2.67;;;14.20;99.90;;;;;;5072380;28;20459;-74
2021/08/24 02:58:00;;;;;;;4.10;2.55;;;14.20;99.90;;;;;;5067210;28;20040;-75
2021/08/24 03:00:27;;;;;;;7.50;2.80;;;14.10;99.90;;;;;;5069954;28;20045;-74
2021/08/24 03:02:53;;;;;;;5.78;2.78;;;14.20;99.90;;;;;;5055598;28;20040;-74
2021/08/24 03:05:20;;;;;;;5.18;2.90;;;14.10;99.90;;;;;;5051809;28;20028;-75
2021/08/24 03:07:47;;;;;;;6.53;3.38;;;14.10;99.90;;;;;;5061149;28;20037;-75
2021/08/24 03:10:17;;;;;;;5.85;3.50;;;14.10;99.90;;;;;;5069133;28;20036;-74
2021/08/24 03:12:50;;;;;;;8.50;3.55;;;14.10;99.90;;;;;;5064693;28;20890;-75
2021/08/24 03:15:25;;;;;;;10.20;4.90;;;14.10;99.90;;;;;;5051847;28;20507;-74
2021/08/24 03:18:07;;;;;;;6.38;3.70;;;14.10;99.90;;;;;;5064493;28;20498;-75
2021/08/24 03:20:43;;;;;;;6.20;3.25;;;14.10;99.90;;;;;;5048770;28;20034;-75
2021/08/24 03:23:12;;;;;;;5.07;3.83;;;14.10;99.90;;;;;;5066238;28;20028;-75
2021/08/24 03:25:42;;;;;;;9.20;4.13;;;14.10;99.90;;;;;;5067578;28;20032;-74
2021/08/24 03:28:14;;;;;;;9.07;4.38;;;14.10;99.90;;;;;;5063089;28;20032;-75
2021/08/24 03:30:41;;;;;;;7.82;4.38;;;14.00;99.90;;;;;;5066357;28;20372;-75
2021/08/24 03:33:08;;;;;;;5.28;3.17;;;14.10;99.90;;;;;;5045457;28;20049;-74
2021/08/24 03:35:36;;;;;;;9.65;5.60;;;14.00;99.90;;;;;;5053843;28;20028;-75
2021/08/24 03:38:03;;;;;;;9.07;4.30;;;14.00;99.90;;;;;;5040802;28;20036;-75
2021/08/24 03:40:30;;;;;;;5.65;3.97;;;14.00;99.90;;;;;;5034391;28;20046;-75
2021/08/24 03:42:56;;;;;;;5.63;4.10;;;14.00;99.90;;;;;;5029143;28;20056;-75
2021/08/24 03:45:24;;;;;;;8.70;5.28;;;14.00;99.90;;;;;;5028612;28;20368;-75
2021/08/24 03:47:50;;;;;;;6.03;4.50;;;14.00;99.90;;;;;;5059515;28;20037;-75
2021/08/24 03:50:17;;;;;;;7.70;4.13;;;14.00;99.90;;;;;;5046051;28;20040;-74
2021/08/24 03:52:43;;;;;;;9.38;4.20;;;14.00;99.90;;;;;;5062576;28;20401;-75
2021/08/24 03:55:11;;;;;;;10.68;4.72;;;14.00;99.90;;;;;;5063261;28;20028;-75
2021/08/24 03:57:37;;;;;;;9.48;5.22;;;14.00;99.90;;;;;;5059745;28;20032;-75
2021/08/24 04:00:05;;;;;;;9.60;4.63;;;14.00;99.90;;;;;;5063011;28;20467;-74
2021/08/24 04:02:39;;;;;;;7.50;4.47;;;14.00;99.90;;;;;;5046240;28;20040;-74
2021/08/24 04:05:06;;;;;;;9.20;5.35;;;14.00;99.90;;;;;;5062662;28;20041;-75
2021/08/24 04:07:33;;;;;;;9.20;5.25;;;14.00;99.90;;;;;;5059571;28;20036;-75
2021/08/24 04:09:59;;;;;;;7.90;5.07;;;14.00;99.90;;;;;;5059793;28;20032;-75
2021/08/24 04:12:26;;;;;;;7.50;4.50;;;14.00;99.90;;;;;;5061956;28;20032;-75
2021/08/24 04:14:52;;;;;;;7.13;4.40;;;14.00;99.90;;;;;;5045263;28;20443;-75
2021/08/24 04:17:19;;;;;;;8.13;4.53;;;13.90;99.90;;;;;;5061151;28;20521;-76
2021/08/24 04:19:45;;;;;;;10.23;4.80;;;13.90;99.90;;;;;;5061467;28;20033;-76
2021/08/24 04:22:18;;;;;;;9.13;5.13;;;13.90;99.90;;;;;;5062694;28;20056;-76
2021/08/24 04:24:45;;;;;;;9.00;5.13;;;13.90;99.90;;;;;;5045413;28;20036;-74
2021/08/24 04:27:11;;;;;;;10.98;5.47;;;13.90;99.90;;;;;;5058452;28;20039;-74
2021/08/24 04:29:38;;;;;;;14.50;11.15;;;13.90;99.90;;;;;;5061454;28;20051;-74
2021/08/24 04:32:06;;;;;;;15.07;9.30;;;13.90;99.90;;;;;;5061946;28;20387;-74
2021/08/24 04:34:33;;;;;;;10.88;6.50;;;13.90;99.90;;;;;;5041173;28;20041;-75
2021/08/24 04:36:59;;;;;;;9.02;5.07;;;13.90;99.90;;;;;;5047902;28;20051;-75
2021/08/24 04:39:25;;;;;;;10.10;6.22;;;13.90;99.90;;;;;;5048825;28;20071;-74
2021/08/24 04:41:52;;;;;;;11.80;5.80;;;13.90;99.90;;;;;;5063707;28;20036;-75
2021/08/24 04:44:18;;;;;;;10.48;7.05;;;13.90;99.90;;;;;;5080397;28;20047;-76
2021/08/24 04:46:44;;;;;;;8.43;5.13;;;13.90;99.90;;;;;;5057356;28;20418;-74
2021/08/24 04:49:11;;;;;;;9.75;6.07;;;13.90;99.90;;;;;;5062265;28;20044;-75
2021/08/24 04:51:37;;;;;;;12.85;8.55;;;13.90;99.90;;;;;;5077876;28;20043;-75
2021/08/24 04:54:04;;;;;;;11.13;7.80;;;13.90;99.90;;;;;;5032863;28;20032;-75
2021/08/24 04:56:30;;;;;;;13.60;8.80;;;13.90;99.90;;;;;;5077532;28;20040;-74
2021/08/24 04:58:56;;;;;;;12.95;6.68;;;13.90;99.90;;;;;;5064657;28;20040;-75
2021/08/24 05:01:23;;;;;;;10.73;6.30;;;14.00;99.90;;;;;;5040215;28;20051;-75
2021/08/24 05:03:49;;;;;;;13.18;6.10;;;13.90;99.90;;;;;;5054001;28;20052;-75
2021/08/24 05:06:16;;;;;;;8.15;5.75;;;14.00;99.90;;;;;;5064039;28;20502;-75
2021/08/24 05:08:42;;;;;;;7.20;5.65;;;13.90;99.90;;;;;;5058749;28;20033;-76
2021/08/24 05:11:08;;;;;;;10.95;6.07;;;14.00;99.90;;;;;;5064986;28;20032;-75
2021/08/24 05:13:35;;;;;;;10.10;6.20;;;14.00;99.90;;;;;;5059849;28;20044;-75
2021/08/24 05:16:07;;;;;;;17.77;6.65;;;14.00;99.90;;;;;;5075139;28;20051;-75
2021/08/24 05:18:35;;;;;;;9.45;5.57;;;14.00;99.90;;;;;;5055407;28;20513;-75
2021/08/24 05:21:06;;;;;;;11.05;4.88;;;14.00;99.90;;;;;;5084223;28;20040;-75
2021/08/24 05:23:38;;;;;;;11.10;5.28;;;14.10;99.90;;;;;;5095477;28;20042;-75
2021/08/24 05:26:11;;;;;;;9.00;6.15;;;14.10;99.90;;;;;;5060553;28;20575;-75
2021/08/24 05:28:37;;;;;;;10.38;4.97;;;14.10;99.90;;;;;;5031925;28;20031;-75
2021/08/24 05:31:04;;;;;;;9.38;5.82;;;14.20;99.90;;;;;;5086545;28;20028;-75
2021/08/24 05:33:33;;;;;;;10.68;5.63;;;14.20;99.90;;;;;;5082072;28;20047;-75
2021/08/24 05:36:01;;;;;;;9.45;5.88;;;14.20;99.90;;;;;;5066598;28;20048;-76
2021/08/24 05:38:30;;;;;;;11.27;6.90;;;14.20;99.90;;;;;;5049166;28;20040;-75
2021/08/24 05:40:56;;;;;;;7.55;5.38;;;14.30;99.90;;;;;;5086397;28;20036;-75
2021/08/24 05:43:24;;;;;;;10.52;6.20;;;14.20;99.90;;;;;;5050893;28;20066;-75
2021/08/24 05:46:05;;;;;;;9.95;5.60;;;14.30;99.90;;;;;;5066800;28;20028;-75
2021/08/24 05:48:32;;;;;;;11.93;5.57;;;14.40;99.90;;;;;;5066482;28;20387;-75
2021/08/24 05:50:59;;;;;;;8.30;6.00;;;14.40;99.90;;;;;;5086236;28;20086;-75
2021/08/24 05:53:26;;;;;;;10.77;6.05;;;14.50;99.90;;;;;;5085753;28;20032;-75
2021/08/24 05:55:52;;;;;;;12.27;7.35;;;14.60;99.90;;;;;;5085412;28;20020;-75
2021/08/24 05:58:22;;;;;;;12.30;5.88;;;14.70;99.90;;;;;;5049722;28;20036;-75
2021/08/24 06:00:49;;;;;;;14.88;6.28;;;14.80;99.90;;;;;;5084365;28;20525;-75
2021/08/24 06:03:15;;;;;;;10.70;5.10;;;14.90;99.90;;;;;;5066096;28;20052;-75
2021/08/24 06:05:42;;;;;;;8.15;4.97;;;15.00;99.90;;;;;;5066967;28;20486;-75
2021/08/24 06:08:09;;;;;;;8.10;5.07;;;15.10;99.90;;;;;;5083539;28;20035;-75
2021/08/24 06:10:37;;;;;;;7.50;5.38;;;15.30;99.90;;;;;;5085304;28;20043;-75
2021/08/24 06:13:04;;;;;;;9.80;5.63;;;15.40;99.90;;;;;;5034731;28;20040;-75
2021/08/24 06:15:32;;;;;;;9.88;4.40;;;15.60;99.90;;;;;;5085213;28;20032;-75
2021/08/24 06:17:58;;;;;;;7.32;5.00;;;15.70;99.90;;;;;;5079875;28;20047;-75
2021/08/24 06:20:25;;;;;;;10.60;5.50;;;15.80;99.90;;;;;;5085227;28;20048;-75
2021/08/24 06:22:51;;;;;;;11.45;5.80;;;16.00;99.90;;;;;;5066769;28;20027;-75
2021/08/24 06:25:18;;;;;;;13.57;7.45;;;16.00;99.90;;;;;;5067236;28;20059;-74
2021/08/24 06:27:44;;;;;;;10.10;6.00;;;16.10;99.90;;;;;;5079776;28;20032;-74
2021/08/24 06:30:12;;;;;;;10.43;5.72;;;16.20;99.90;;;;;;5085682;28;20032;-75
2021/08/24 06:32:44;;;;;;;10.20;5.18;;;16.30;99.90;;;;;;5047337;28;20943;-75
2021/08/24 06:35:11;;;;;;;;;;;16.30;99.90;;;;;;5067071;28;20053;-76
2021/08/24 06:37:38;;;;;;;8.85;5.90;;;16.50;99.90;;;;;;5065061;28;19928;-75
2021/08/24 06:40:06;;;;;;;8.70;4.88;;;16.60;99.90;;;;;;5084191;28;20063;-75
2021/08/24 06:42:44;;;;;;;7.97;4.63;;;16.60;99.90;;;;;;5064842;28;20505;-75
2021/08/24 06:45:15;;;;;;;8.02;5.43;;;16.70;99.90;;;;;;5082349;28;20040;-75
2021/08/24 06:47:42;;;;;;;7.57;5.78;;;16.80;99.90;;;;;;5080633;28;20035;-75
2021/08/24 06:50:09;;;;;;;6.55;4.80;;;16.90;99.90;;;;;;5078686;28;20035;-75
2021/08/24 06:52:35;;;;;;;10.02;5.88;;;17.10;99.90;;;;;;5064866;28;20036;-77
2021/08/24 06:55:02;;;;;;;8.70;5.10;;;17.30;99.90;;;;;;5075383;28;20047;-77
2021/08/24 06:57:28;;;;;;;8.52;5.80;;;17.50;99.90;;;;;;5045023;28;20699;-77
2021/08/24 06:59:55;;;;;;;13.70;9.38;;;17.70;99.90;;;;;;5078555;28;20036;-77
2021/08/24 07:02:21;;;;;;;7.38;6.65;;;17.80;99.90;;;;;;5061882;28;20040;-77
2021/08/24 07:04:48;;;;;;;12.88;6.53;;;17.90;99.90;;;;;;5061658;28;20141;-76
2021/08/24 07:07:15;;;;;;;7.63;3.97;;;18.00;99.90;;;;;;5048084;28;20387;-75
2021/08/24 07:09:42;;;;;;;11.07;5.68;;;18.00;99.90;;;;;;5078602;28;20036;-75
2021/08/24 07:12:08;;;;;;;12.35;6.90;;;18.10;99.90;;;;;;5082140;28;20058;-75
2021/08/24 07:14:36;;;;;;;9.52;6.18;;;18.10;99.90;;;;;;5065349;28;20040;-75
2021/08/24 07:17:03;;;;;;;10.80;6.35;;;18.10;99.90;;;;;;5082136;28;20028;-75
2021/08/24 07:19:29;;;;;;;10.35;6.05;;;18.20;99.90;;;;;;5047368;28;20048;-75
2021/08/24 07:21:55;;;;;;;6.68;5.57;;;18.20;99.90;;;;;;5084025;28;20036;-75
2021/08/24 07:24:22;;;;;;;7.45;4.18;;;18.20;99.90;;;;;;5066010;28;20391;-75
2021/08/24 07:26:49;;;;;;;9.40;5.47;;;18.20;99.90;;;;;;5048904;28;20036;-76
2021/08/24 07:29:16;;;;;;;6.72;4.88;;;18.40;99.90;;;;;;5064713;28;20043;-75
2021/08/24 07:31:42;;;;;;;10.48;6.10;;;18.50;99.90;;;;;;5085532;28;20032;-76
2021/08/24 07:34:09;;;;;;;6.72;5.25;;;18.60;99.90;;;;;;5049352;28;20043;-75
2021/08/24 07:36:36;;;;;;;7.55;5.13;;;18.70;99.90;;;;;;5064087;28;20049;-75
2021/08/24 07:39:05;;;;;;;9.07;5.53;;;18.80;99.90;;;;;;5081998;28;20051;-75
2021/08/24 07:41:31;;;;;;;10.48;4.85;;;18.90;99.90;;;;;;5079898;28;20041;-74
2021/08/24 07:43:58;;;;;;;8.20;4.28;;;18.90;99.90;;;;;;5064460;28;20055;-75
2021/08/24 07:46:24;;;;;;;6.95;3.92;;;18.90;99.90;;;;;;5063922;28;20036;-75
2021/08/24 07:48:51;;;;;;;8.55;4.57;;;19.00;99.90;;;;;;5081506;28;20036;-75
2021/08/24 07:51:20;;;;;;;7.45;3.33;;;19.10;99.90;;;;;;5080598;28;20043;-75
2021/08/24 07:53:48;;;;;;;6.28;3.22;;;19.20;99.90;;;;;;5065089;28;20609;-75
2021/08/24 07:56:15;;;;;;;5.22;3.03;;;19.30;99.90;;;;;;5048199;28;20032;-75
2021/08/24 07:58:41;;;;;;;7.45;3.70;;;19.50;99.90;;;;;;5081308;28;20390;-75
2021/08/24 08:01:08;;;;;;;6.25;2.88;;;19.60;99.90;;;;;;5046762;28;20052;-75
2021/08/24 08:03:35;;;;;;;5.40;3.30;;;19.70;99.90;;;;;;5047792;28;20032;-74
2021/08/24 08:06:02;;;;;;;7.28;3.25;;;19.90;99.90;;;;;;5046678;28;20047;-75
2021/08/24 08:08:28;;;;;;;5.07;2.92;;;19.90;99.90;;;;;;5080766;28;20490;-75
2021/08/24 08:10:56;;;;;;;9.50;3.90;;;20.00;99.90;;;;;;5063774;28;20072;-75
2021/08/24 08:13:26;;;;;;;4.53;3.17;;;20.10;99.90;;;;;;5064818;28;20028;-75
2021/08/24 08:15:52;;;;;;;6.22;2.10;;;20.20;99.90;;;;;;5062848;28;20482;-75
2021/08/24 08:18:18;;;;;;;5.13;2.38;;;20.30;99.90;;;;;;5078351;28;20032;-75
2021/08/24 08:20:46;;;;;;;4.88;2.60;;;20.30;99.90;;;;;;5047326;28;20048;-74
2021/08/24 08:23:18;;;;;;;2.83;1.80;;;20.40;99.90;;;;;;5082175;28;20398;-74
2021/08/24 08:25:45;;;;;;;3.40;1.92;;;20.60;99.90;;;;;;5049514;28;20047;-75
2021/08/24 08:28:12;;;;;;;4.38;1.50;;;20.70;99.90;;;;;;5078687;28;20036;-75
2021/08/24 08:30:43;;;;;;;4.47;1.73;;;20.90;99.90;;;;;;5043968;28;20593;-75
2021/08/24 08:33:09;;;;;;;4.05;1.50;;;21.00;99.90;;;;;;5062580;28;20032;-75
2021/08/24 08:35:37;;;;;;;4.75;1.50;;;21.20;99.90;;;;;;5051954;28;20032;-75
2021/08/24 08:38:04;;;;;;;2.75;1.65;;;21.30;99.90;;;;;;5066037;28;20048;-76
2021/08/24 08:40:53;;;;;;;3.88;1.95;;;21.40;99.90;;;;;;5068451;28;20398;-75
2021/08/24 08:43:41;;;;;;;4.18;1.88;;;21.40;99.60;;;;;;5084476;28;20387;-75
2021/08/24 08:46:31;;;;;;;5.57;2.40;;;21.50;99.40;;;;;;5084066;28;20506;-74
2021/08/24 08:49:21;;;;;;;3.55;1.42;;;21.50;99.40;;;;;;5041051;28;20388;-74
2021/08/24 08:52:01;;;;;;;4.93;1.70;;;21.60;99.40;;;;;;5068211;28;20033;-75
2021/08/24 08:54:48;;;;;;;4.50;1.83;;;21.70;98.90;;;;;;5067370;28;20043;-75
2021/08/24 08:57:23;;;;;;;5.25;1.90;;;21.80;98.40;;;;;;5066387;28;20043;-75
2021/08/24 08:59:51;;;;;;;3.70;1.70;;;21.80;98.20;;;;;;5066131;28;20487;-75
2021/08/24 09:02:30;;;;;;;4.43;1.60;;;21.90;98.30;;;;;;5084515;28;20043;-75
2021/08/24 09:04:57;;;;;;;3.70;1.30;;;22.10;98.00;;;;;;5086153;28;20032;-76
2021/08/24 09:07:31;;;;;;;2.45;1.00;;;22.30;98.00;;;;;;5065856;28;20036;-75
2021/08/24 09:09:59;;;;;;;3.35;1.58;;;22.40;97.80;;;;;;5084431;28;20039;-75
2021/08/24 09:12:31;;;;;;;3.40;1.35;;;22.50;96.70;;;;;;5067787;28;20043;-75
2021/08/24 09:15:00;;;;;;;4.50;1.40;;;22.40;96.50;;;;;;5086049;28;20028;-75
2021/08/24 09:17:37;;;;;;;4.82;1.13;;;22.40;96.80;;;;;;5084291;28;20483;-77
2021/08/24 09:20:24;;;;;;;4.60;1.40;;;22.50;96.60;;;;;;5085098;28;20043;-76
2021/08/24 09:22:52;;;;;;;4.03;1.23;;;22.60;96.20;;;;;;5085669;28;20032;-77
2021/08/24 09:25:26;;;;;;;5.95;2.17;;;22.70;96.10;;;;;;5086149;28;20036;-76
2021/08/24 09:28:06;;;;;;;5.63;1.50;;;22.80;95.80;;;;;;5063433;28;20040;-75
2021/08/24 09:30:43;;;;;;;6.65;1.83;;;22.80;95.60;;;;;;5087299;28;20036;-73
2021/08/24 09:33:11;;;;;;;5.22;1.75;;;22.80;95.80;;;;;;5067207;28;20036;-75
2021/08/24 09:35:48;;;;;;;6.55;1.52;;;22.70;95.50;;;;;;5084659;28;20051;-78
2021/08/24 09:38:27;;;;;;;4.57;2.10;;;22.60;95.80;;;;;;5065701;28;20048;-75
2021/08/24 09:40:59;;;;;;;4.90;1.50;;;22.60;95.60;;;;;;5066486;28;20035;-75
2021/08/24 09:43:27;;;;;;;5.05;1.45;;;22.50;95.70;;;;;;5084459;28;20023;-76
2021/08/24 09:46:16;;;;;;;5.28;1.52;;;22.40;95.70;;;;;;5083257;28;20039;-75
2021/08/24 09:49:07;;;;;;;4.10;1.85;;;22.40;95.60;;;;;;5065056;28;20032;-75
2021/08/24 09:51:53;;;;;;;5.38;3.17;;;22.30;95.70;;;;;;5064416;28;20041;-75
2021/08/24 09:54:29;;;;;;;5.32;2.53;;;22.30;95.60;;;;;;5085322;28;20023;-75
2021/08/24 09:57:16;;;;;;;5.65;2.60;;;22.30;95.70;;;;;;5066747;28;20885;-75
2021/08/24 10:00:06;;;;;;;4.97;1.60;;;22.50;95.40;;;;;;5064799;28;20031;-75
2021/08/24 10:02:41;;;;;;;6.25;1.90;;;22.50;95.40;;;;;;5083782;28;20035;-75
2021/08/24 10:05:12;;;;;;;4.00;2.13;;;22.40;95.00;;;;;;5070342;28;20037;-76
2021/08/24 10:07:47;;;;;;;2.85;1.55;;;22.50;94.90;;;;;;5072288;28;20535;-75
2021/08/24 10:10:26;;;;;;;6.45;1.83;;;22.60;94.70;;;;;;5076298;28;20032;-74
2021/08/24 10:12:53;;;;;;;4.10;1.80;;;22.80;94.50;;;;;;5068684;28;20031;-73
2021/08/24 10:15:29;;;;;;;3.42;1.50;;;22.90;94.00;;;;;;5058337;28;20039;-74
2021/08/24 10:17:57;;;;;;;3.55;1.40;;;22.90;94.10;;;;;;5082167;28;20036;-74
2021/08/24 10:20:34;;;;;;;6.68;2.33;;;23.00;94.20;;;;;;5078323;28;20574;-74
2021/08/24 10:23:06;;;;;;;4.60;1.70;;;23.20;93.60;;;;;;5074244;28;20032;-74
2021/08/24 10:25:43;;;;;;;;;;;23.50;93.10;;;;;;5078071;28;20047;-74
2021/08/24 10:28:17;;;;;;;6.55;1.25;;;23.70;93.00;;;;;;5064061;28;19912;-74
2021/08/24 10:30:48;;;;;;;1.70;0.70;;;24.10;92.60;;;;;;5084419;28;20036;-75
2021/08/24 10:33:26;;;;;;;2.72;1.52;;;24.50;91.50;;;;;;5082766;28;20128;-75
2021/08/24 10:36:00;;;;;;;3.65;1.90;;;24.90;90.70;;;;;;5064177;28;20039;-75
2021/08/24 10:38:51;;;;;;;4.75;2.30;;;25.10;88.60;;;;;;5073429;28;20054;-75
2021/08/24 10:41:35;;;;;;;6.00;1.30;;;25.30;87.60;;;;;;5065361;28;20570;-76
2021/08/24 10:44:25;;;;;;;3.33;0.95;;;25.50;86.80;;;;;;5046781;28;20039;-76
2021/08/24 10:47:00;;;;;;;4.10;1.05;;;25.70;84.80;;;;;;5065109;28;20043;-76
2021/08/24 10:49:28;;;;;;;3.67;1.00;;;25.60;82.10;;;;;;5048066;28;20487;-76
2021/08/24 10:52:16;;;;;;;2.80;1.10;;;25.60;81.10;;;;;;5069053;28;20032;-79
2021/08/24 10:54:42;;;;;;;2.92;1.00;;;25.90;78.50;;;;;;5048408;28;20047;-79
2021/08/24 10:57:44;;;;;;;2.75;1.30;;;26.10;76.50;;;;;;5069443;28;20028;-79
2021/08/24 11:00:42;;;;;;;3.17;1.30;;;26.30;74.50;;;;;;5065962;28;20051;-76
2021/08/24 11:03:38;;;;;;;3.42;1.30;;;26.40;73.70;;;;;;5044917;28;20035;-78
2021/08/24 11:06:12;;;;;;;2.50;1.00;;;26.10;73.40;;;;;;5049927;28;20491;-76
2021/08/24 11:09:01;;;;;;;1.80;0.90;;;26.00;74.50;;;;;;5071852;28;20049;-76
2021/08/24 11:11:54;;;;;;;2.33;1.10;;;26.00;75.10;;;;;;5045949;28;20060;-75
2021/08/24 11:15:01;;;;;;;4.40;1.27;;;26.00;73.30;;;;;;5032961;28;20060;-75
2021/08/24 11:17:52;;;;;;;2.53;1.05;;;26.00;72.70;;;;;;5064731;28;20055;-75
2021/08/24 11:20:42;;;;;;;1.55;0.90;;;26.30;69.50;;;;;;5065328;28;20036;-75
2021/08/24 11:23:38;;;;;;;3.22;1.10;;;26.50;68.10;;;;;;5069107;28;20028;-75
2021/08/24 11:26:21;;;;;;;2.45;0.82;;;26.90;68.30;;;;;;5066699;28;20028;-75
2021/08/24 11:28:52;;;;;;;1.50;0.95;;;27.20;67.50;;;;;;5044829;28;20558;-75
2021/08/24 11:31:28;;;;;;;1.88;1.10;;;27.70;66.00;;;;;;5069110;28;20039;-75
2021/08/24 11:34:18;;;;;;;1.92;0.80;;;27.90;63.70;;;;;;5029387;28;20053;-75
2021/08/24 11:36:50;;;;;;;1.20;0.60;;;27.90;63.10;;;;;;5067294;28;20158;-75
2021/08/24 11:39:27;;;;;;;2.40;1.20;;;28.10;63.80;;;;;;5058170;28;20044;-75
2021/08/24 11:42:00;;;;;;;1.92;1.00;;;28.30;59.80;;;;;;5083915;28;20487;-75
2021/08/24 11:44:37;;;;;;;2.05;1.15;;;28.30;57.90;;;;;;5083799;28;20387;-75
2021/08/24 11:47:13;;;;;;;2.00;0.90;;;28.50;57.50;;;;;;5082131;28;20031;-75
2021/08/24 11:49:51;;;;;;;1.80;0.90;;;28.80;54.90;;;;;;5079271;28;20482;-75
2021/08/24 11:52:51;;;;;;;2.45;1.08;;;28.90;55.00;;;;;;5082137;28;20046;-75
2021/08/24 11:55:26;;;;;;;3.42;0.90;;;29.20;55.00;;;;;;5065017;28;20036;-75
2021/08/24 11:58:19;;;;;;;1.85;0.90;;;29.50;53.20;;;;;;5060810;28;20028;-75
2021/08/24 12:00:57;;;;;;;2.00;0.98;;;29.60;51.70;;;;;;5082080;28;20478;-76
2021/08/24 12:03:25;;;;;;;1.70;0.77;;;29.60;50.00;;;;;;5047454;28;20040;-75
2021/08/24 12:06:16;;;;;;;1.88;1.05;;;29.60;50.30;;;;;;5047827;28;20055;-76
2021/08/24 12:08:54;;;;;;;2.07;1.23;;;29.60;50.80;;;;;;5055466;28;20036;-76
2021/08/24 12:11:24;;;;;;;2.65;1.80;;;29.70;51.60;;;;;;5080718;28;20039;-76
2021/08/24 12:13:53;;;;;;;2.25;1.23;;;29.90;51.00;;;;;;5064461;28;20402;-75
2021/08/24 12:16:29;;;;;;;2.85;0.90;;;30.00;50.00;;;;;;5080510;28;20024;-76
2021/08/24 12:19:25;;;;;;;2.22;1.13;;;29.80;49.30;;;;;;5080753;28;20437;-76
2021/08/24 12:21:54;;;;;;;3.83;1.13;;;29.60;49.20;;;;;;5082312;28;20039;-76
2021/08/24 12:24:23;;;;;;;2.60;1.23;;;29.50;49.60;;;;;;5062707;28;20406;-75
2021/08/24 12:26:56;;;;;;;2.00;1.10;;;29.60;49.60;;;;;;5064402;28;20044;-76
2021/08/24 12:29:35;;;;;;;2.65;1.52;;;29.80;49.40;;;;;;5030079;28;20491;-76
2021/08/24 12:32:27;;;;;;;2.35;1.15;;;30.20;49.30;;;;;;5064851;28;20425;-76
2021/08/24 12:35:04;;;;;;;2.17;1.15;;;30.70;48.80;;;;;;5022755;28;20044;-76
2021/08/24 12:37:31;;;;;;;2.30;1.10;;;31.20;47.70;;;;;;5063991;28;20930;-76
2021/08/24 12:40:10;;;;;;;2.92;1.70;;;31.40;46.10;;;;;;5049284;28;20436;-77
2021/08/24 12:42:41;;;;;;;3.08;1.70;;;31.60;45.80;;;;;;5063998;28;20040;-76
2021/08/24 12:45:10;;;;;;;2.22;1.15;;;31.50;45.40;;;;;;5064744;28;20040;-76
2021/08/24 12:47:44;;;;;;;2.55;1.27;;;31.60;46.40;;;;;;5046079;28;20491;-77
2021/08/24 12:50:10;;;;;;;2.30;1.00;;;31.60;46.10;;;;;;5063812;28;20062;-77
2021/08/24 12:52:43;;;;;;;3.28;1.13;;;31.60;46.20;;;;;;5064680;28;20044;-76
2021/08/24 12:55:32;;;;;;;2.13;1.00;;;31.30;46.60;;;;;;5082502;28;20031;-77
2021/08/24 12:58:21;;;;;;;1.98;1.27;;;31.50;47.30;;;;;;5074181;28;20055;-77
2021/08/24 13:01:11;;;;;;;2.40;2.20;;;31.90;46.20;;;;;;5081829;28;20032;-77
2021/08/24 13:03:51;;;;;;;2.15;1.20;;;32.60;45.00;;;;;;5082584;28;20071;-75
2021/08/24 13:06:25;;;;;;;2.85;1.25;;;32.30;43.80;;;;;;5080988;28;20032;-76
2021/08/24 13:09:13;;;;;;;1.73;0.90;;;31.20;44.90;;;;;;5078762;28;20066;-76
2021/08/24 13:11:41;;;;;;;2.20;1.73;;;30.70;45.60;;;;;;5063886;28;20051;-76
2021/08/24 13:14:45;;;;;;;1.95;0.80;;;30.40;45.60;;;;;;5064474;28;20039;-76
2021/08/24 13:17:15;;;;;;;2.35;1.10;;;30.30;46.90;;;;;;5062642;28;20035;-76